sensor_id;sensor_type;location;lat;lon;timestamp;pressure;altitude;pressure_sealevel;temperature;humidity
57779;BME280;43608;49.486;9.640;2023-04-02T00:01:39;97815.84;;;7.91;87.28
57779;BME280;43608;49.486;9.640;2023-04-02T00:04:19;97801.81;;;7.88;87.30
57779;BME280;43608;49.486;9.640;2023-04-02T00:05:48;97817.56;;;7.96;87.46
57779;BME280;43608;49.486;9.640;2023-04-02T00:07:23;97823.75;;;7.96;87.33
57779;BME280;43608;49.486;9.640;2023-04-02T00:08:01;97812.34;;;7.88;87.24
57779;BME280;43608;49.486;9.640;2023-04-02T00:08:37;97823.75;;;7.96;87.16
57779;BME280;43608;49.486;9.640;2023-04-02T00:09:40;97802.72;;;7.87;87.38
57779;BME280;43608;49.486;9.640;2023-04-02T00:10:31;97820.25;;;7.94;87.35
57779;BME280;43608;49.486;9.640;2023-04-02T00:11:04;97833.41;;;7.96;87.56
57779;BME280;43608;49.486;9.640;2023-04-02T00:11:41;97822.91;;;7.92;87.42
57779;BME280;43608;49.486;9.640;2023-04-02T00:12:16;97824.63;;;7.97;87.59
57779;BME280;43608;49.486;9.640;2023-04-02T00:13:41;97825.50;;;7.96;87.51
57779;BME280;43608;49.486;9.640;2023-04-02T00:14:32;97819.41;;;7.89;87.31
57779;BME280;43608;49.486;9.640;2023-04-02T00:15:04;97831.66;;;7.94;87.56
57779;BME280;43608;49.486;9.640;2023-04-02T00:15:36;97829.91;;;7.95;87.48
57779;BME280;43608;49.486;9.640;2023-04-02T00:16:11;97829.00;;;7.94;87.54
57779;BME280;43608;49.486;9.640;2023-04-02T00:16:43;97810.63;;;7.85;87.75
57779;BME280;43608;49.486;9.640;2023-04-02T00:17:13;97813.28;;;7.84;87.53
57779;BME280;43608;49.486;9.640;2023-04-02T00:17:44;97820.25;;;7.92;87.48
57779;BME280;43608;49.486;9.640;2023-04-02T00:18:18;97816.72;;;7.95;87.63
57779;BME280;43608;49.486;9.640;2023-04-02T00:18:53;97817.63;;;7.88;87.65
57779;BME280;43608;49.486;9.640;2023-04-02T00:20:07;97819.41;;;7.89;87.62
57779;BME280;43608;49.486;9.640;2023-04-02T00:20:41;97823.78;;;7.90;87.88
57779;BME280;43608;49.486;9.640;2023-04-02T00:21:46;97803.63;;;7.80;87.66
57779;BME280;43608;49.486;9.640;2023-04-02T00:22:24;97836.06;;;7.94;87.59
57779;BME280;43608;49.486;9.640;2023-04-02T00:22:55;97829.94;;;7.92;87.79
57779;BME280;43608;49.486;9.640;2023-04-02T00:23:26;97832.56;;;7.93;88.06
57779;BME280;43608;49.486;9.640;2023-04-02T00:24:01;97813.31;;;7.81;87.81
57779;BME280;43608;49.486;9.640;2023-04-02T00:24:32;97836.94;;;7.94;87.57
57779;BME280;43608;49.486;9.640;2023-04-02T00:25:10;97836.94;;;7.94;87.94
57779;BME280;43608;49.486;9.640;2023-04-02T00:25:43;97836.94;;;7.93;87.84
57779;BME280;43608;49.486;9.640;2023-04-02T00:26:34;97836.94;;;7.93;87.87
57779;BME280;43608;49.486;9.640;2023-04-02T00:27:10;97832.56;;;7.93;87.87
57779;BME280;43608;49.486;9.640;2023-04-02T00:27:44;97830.84;;;7.86;87.89
57779;BME280;43608;49.486;9.640;2023-04-02T00:28:18;97827.28;;;7.93;88.04
57779;BME280;43608;49.486;9.640;2023-04-02T00:28:50;97824.69;;;7.87;87.91
57779;BME280;43608;49.486;9.640;2023-04-02T00:29:21;97829.94;;;7.89;88.16
57779;BME280;43608;49.486;9.640;2023-04-02T00:29:54;97779.16;;;7.60;88.05
57779;BME280;43608;49.486;9.640;2023-04-02T00:30:27;97822.06;;;7.87;88.07
57779;BME280;43608;49.486;9.640;2023-04-02T00:30:58;97822.09;;;7.81;88.07
57779;BME280;43608;49.486;9.640;2023-04-02T00:31:29;97830.84;;;7.89;88.10
57779;BME280;43608;49.486;9.640;2023-04-02T00:32:00;97828.16;;;7.92;87.99
57779;BME280;43608;49.486;9.640;2023-04-02T00:32:32;97829.06;;;7.90;88.10
57779;BME280;43608;49.486;9.640;2023-04-02T00:33:04;97829.94;;;7.93;88.17
57779;BME280;43608;49.486;9.640;2023-04-02T00:33:35;97787.88;;;7.67;88.29
57779;BME280;43608;49.486;9.640;2023-04-02T00:34:08;97838.72;;;7.92;88.26
57779;BME280;43608;49.486;9.640;2023-04-02T00:34:42;97824.72;;;7.86;88.11
57779;BME280;43608;49.486;9.640;2023-04-02T00:35:20;97824.72;;;7.83;88.24
57779;BME280;43608;49.486;9.640;2023-04-02T00:35:53;97812.41;;;7.80;88.17
57779;BME280;43608;49.486;9.640;2023-04-02T00:36:25;97837.84;;;7.90;88.42
57779;BME280;43608;49.486;9.640;2023-04-02T00:36:59;97834.38;;;7.88;88.32
57779;BME280;43608;49.486;9.640;2023-04-02T00:37:31;97835.22;;;7.92;88.26
57779;BME280;43608;49.486;9.640;2023-04-02T00:38:23;97839.63;;;7.90;88.32
57779;BME280;43608;49.486;9.640;2023-04-02T00:38:57;97832.59;;;7.87;88.09
57779;BME280;43608;49.486;9.640;2023-04-02T00:39:33;97840.47;;;7.90;88.42
57779;BME280;43608;49.486;9.640;2023-04-02T00:40:27;97842.25;;;7.91;88.24
57779;BME280;43608;49.486;9.640;2023-04-02T00:41:02;97830.03;;;7.80;88.33
57779;BME280;43608;49.486;9.640;2023-04-02T00:41:36;97822.13;;;7.78;88.40
57779;BME280;43608;49.486;9.640;2023-04-02T00:42:10;97834.38;;;7.88;88.52
57779;BME280;43608;49.486;9.640;2023-04-02T00:42:42;97813.38;;;7.73;88.29
57779;BME280;43608;49.486;9.640;2023-04-02T00:43:14;97858.06;;;7.91;88.30
57779;BME280;43608;49.486;9.640;2023-04-02T00:43:48;97855.44;;;7.91;88.49
57779;BME280;43608;49.486;9.640;2023-04-02T00:44:21;97845.78;;;7.87;88.63
57779;BME280;43608;49.486;9.640;2023-04-02T00:44:53;97804.63;;;7.66;88.39
57779;BME280;43608;49.486;9.640;2023-04-02T00:45:28;97846.66;;;7.89;88.57
57779;BME280;43608;49.486;9.640;2023-04-02T00:46:06;97843.16;;;7.87;88.68
57779;BME280;43608;49.486;9.640;2023-04-02T00:46:42;97789.72;;;7.57;88.54
57779;BME280;43608;49.486;9.640;2023-04-02T00:47:21;97838.78;;;7.85;88.66
57779;BME280;43608;49.486;9.640;2023-04-02T00:47:57;97847.56;;;7.88;88.58
57779;BME280;43608;49.486;9.640;2023-04-02T00:49:07;97818.63;;;7.73;88.72
57779;BME280;43608;49.486;9.640;2023-04-02T00:49:40;97819.47;;;7.75;88.69
57779;BME280;43608;49.486;9.640;2023-04-02T00:50:43;97837.00;;;7.84;88.72
57779;BME280;43608;49.486;9.640;2023-04-02T00:51:25;97845.75;;;7.90;88.71
57779;BME280;43608;49.486;9.640;2023-04-02T00:51:58;97819.50;;;7.73;88.81
57779;BME280;43608;49.486;9.640;2023-04-02T00:52:31;97847.53;;;7.91;88.75
57779;BME280;43608;49.486;9.640;2023-04-02T00:53:21;97826.47;;;7.82;88.66
57779;BME280;43608;49.486;9.640;2023-04-02T00:54:01;97848.41;;;7.90;88.81
57779;BME280;43608;49.486;9.640;2023-04-02T00:55:00;97844.88;;;7.91;88.83
57779;BME280;43608;49.486;9.640;2023-04-02T00:55:38;97844.03;;;7.91;88.75
57779;BME280;43608;49.486;9.640;2023-04-02T00:56:27;97826.50;;;7.81;88.64
57779;BME280;43608;49.486;9.640;2023-04-02T00:57:00;97849.28;;;7.92;88.74
57779;BME280;43608;49.486;9.640;2023-04-02T00:57:31;97826.53;;;7.79;88.59
57779;BME280;43608;49.486;9.640;2023-04-02T00:58:02;97853.69;;;7.92;88.61
57779;BME280;43608;49.486;9.640;2023-04-02T00:58:35;97852.78;;;7.91;88.49
57779;BME280;43608;49.486;9.640;2023-04-02T00:59:30;97847.53;;;7.91;88.86
57779;BME280;43608;49.486;9.640;2023-04-02T01:00:21;97802.03;;;7.60;88.96
57779;BME280;43608;49.486;9.640;2023-04-02T01:00:52;97834.41;;;7.81;88.82
57779;BME280;43608;49.486;9.640;2023-04-02T01:01:33;97848.41;;;7.89;88.92
57779;BME280;43608;49.486;9.640;2023-04-02T01:04:02;97850.19;;;7.85;89.11
57779;BME280;43608;49.486;9.640;2023-04-02T01:04:37;97854.59;;;7.86;88.77
57779;BME280;43608;49.486;9.640;2023-04-02T01:05:46;97850.19;;;7.88;88.89
57779;BME280;43608;49.486;9.640;2023-04-02T01:06:19;97854.59;;;7.89;88.96
57779;BME280;43608;49.486;9.640;2023-04-02T01:06:50;97844.94;;;7.82;88.96
57779;BME280;43608;49.486;9.640;2023-04-02T01:07:31;97853.72;;;7.87;89.00
57779;BME280;43608;49.486;9.640;2023-04-02T01:08:23;97857.22;;;7.89;89.14
57779;BME280;43608;49.486;9.640;2023-04-02T01:09:18;97852.81;;;7.88;89.18
57779;BME280;43608;49.486;9.640;2023-04-02T01:12:14;97851.94;;;7.86;89.26
57779;BME280;43608;49.486;9.640;2023-04-02T01:13:04;97844.97;;;7.79;89.20
57779;BME280;43608;49.486;9.640;2023-04-02T01:13:46;97839.72;;;7.74;89.16
57779;BME280;43608;49.486;9.640;2023-04-02T01:15:18;97845.88;;;7.78;89.41
57779;BME280;43608;49.486;9.640;2023-04-02T01:16:03;97859.00;;;7.86;89.26
57779;BME280;43608;49.486;9.640;2023-04-02T01:17:05;97855.47;;;7.85;89.55
57779;BME280;43608;49.486;9.640;2023-04-02T01:17:46;97859.88;;;7.85;89.54
57779;BME280;43608;49.486;9.640;2023-04-02T01:18:29;97848.47;;;7.80;89.60
57779;BME280;43608;49.486;9.640;2023-04-02T01:21:46;97865.16;;;7.83;89.54
57779;BME280;43608;49.486;9.640;2023-04-02T01:22:43;97865.16;;;7.83;89.80
57779;BME280;43608;49.486;9.640;2023-04-02T01:24:06;97857.28;;;7.78;89.79
57779;BME280;43608;49.486;9.640;2023-04-02T01:24:37;97863.41;;;7.82;89.73
57779;BME280;43608;49.486;9.640;2023-04-02T01:25:14;97866.06;;;7.82;89.92
57779;BME280;43608;49.486;9.640;2023-04-02T01:25:58;97849.41;;;7.75;89.82
57779;BME280;43608;49.486;9.640;2023-04-02T01:29:12;97874.84;;;7.81;89.88
57779;BME280;43608;49.486;9.640;2023-04-02T01:29:51;97866.97;;;7.75;89.87
57779;BME280;43608;49.486;9.640;2023-04-02T01:30:24;97866.97;;;7.73;89.96
57779;BME280;43608;49.486;9.640;2023-04-02T01:30:56;97870.47;;;7.78;90.05
57779;BME280;43608;49.486;9.640;2023-04-02T01:31:30;97862.59;;;7.74;90.06
57779;BME280;43608;49.486;9.640;2023-04-02T01:32:08;97869.63;;;7.76;90.11
57779;BME280;43608;49.486;9.640;2023-04-02T01:32:40;97872.25;;;7.78;90.08
57779;BME280;43608;49.486;9.640;2023-04-02T01:33:12;97877.50;;;7.78;90.29
57779;BME280;43608;49.486;9.640;2023-04-02T01:33:42;97860.88;;;7.67;90.27
57779;BME280;43608;49.486;9.640;2023-04-02T01:34:16;97881.03;;;7.77;90.44
57779;BME280;43608;49.486;9.640;2023-04-02T01:34:50;97873.97;;;7.77;90.50
57779;BME280;43608;49.486;9.640;2023-04-02T01:35:22;97880.16;;;7.76;90.46
57779;BME280;43608;49.486;9.640;2023-04-02T01:37:59;97877.53;;;7.76;90.59
57779;BME280;43608;49.486;9.640;2023-04-02T01:38:44;97841.63;;;7.52;90.56
57779;BME280;43608;49.486;9.640;2023-04-02T01:41:25;97886.31;;;7.75;90.52
57779;BME280;43608;49.486;9.640;2023-04-02T01:43:51;97879.31;;;7.73;90.65
57779;BME280;43608;49.486;9.640;2023-04-02T01:45:00;97887.19;;;7.74;90.69
57779;BME280;43608;49.486;9.640;2023-04-02T01:45:32;97878.44;;;7.74;90.59
57779;BME280;43608;49.486;9.640;2023-04-02T01:46:23;97878.41;;;7.71;90.59
57779;BME280;43608;49.486;9.640;2023-04-02T01:46:57;97867.03;;;7.66;90.71
57779;BME280;43608;49.486;9.640;2023-04-02T01:47:36;97880.19;;;7.70;90.61
57779;BME280;43608;49.486;9.640;2023-04-02T01:48:16;97873.19;;;7.66;90.78
57779;BME280;43608;49.486;9.640;2023-04-02T01:48:48;97886.31;;;7.72;90.90
57779;BME280;43608;49.486;9.640;2023-04-02T01:49:21;97871.47;;;7.62;90.66
57779;BME280;43608;49.486;9.640;2023-04-02T01:49:57;97885.47;;;7.67;90.75
57779;BME280;43608;49.486;9.640;2023-04-02T01:50:34;97877.63;;;7.59;90.63
57779;BME280;43608;49.486;9.640;2023-04-02T01:51:06;97890.72;;;7.72;90.89
57779;BME280;43608;49.486;9.640;2023-04-02T01:51:41;97891.63;;;7.74;90.83
57779;BME280;43608;49.486;9.640;2023-04-02T01:52:17;97880.25;;;7.63;90.83
57779;BME280;43608;49.486;9.640;2023-04-02T01:52:54;97900.41;;;7.73;90.89
57779;BME280;43608;49.486;9.640;2023-04-02T01:53:27;97893.34;;;7.73;90.93
57779;BME280;43608;49.486;9.640;2023-04-02T01:54:01;97904.81;;;7.74;90.93
57779;BME280;43608;49.486;9.640;2023-04-02T01:54:32;97861.84;;;7.50;90.94
57779;BME280;43608;49.486;9.640;2023-04-02T01:55:06;97908.31;;;7.74;91.02
57779;BME280;43608;49.486;9.640;2023-04-02T01:55:46;97894.28;;;7.66;91.04
57779;BME280;43608;49.486;9.640;2023-04-02T01:56:18;97903.91;;;7.73;91.07
57779;BME280;43608;49.486;9.640;2023-04-02T01:56:51;97879.34;;;7.60;91.05
57779;BME280;43608;49.486;9.640;2023-04-02T01:57:21;97893.41;;;7.69;91.08
57779;BME280;43608;49.486;9.640;2023-04-02T01:57:52;97896.91;;;7.69;91.22
57779;BME280;43608;49.486;9.640;2023-04-02T01:58:30;97899.50;;;7.72;91.19
57779;BME280;43608;49.486;9.640;2023-04-02T01:59:03;97895.13;;;7.70;91.20
57779;BME280;43608;49.486;9.640;2023-04-02T01:59:37;97886.38;;;7.65;91.05
57779;BME280;43608;49.486;9.640;2023-04-02T02:00:13;97899.53;;;7.74;90.96
57779;BME280;43608;49.486;9.640;2023-04-02T02:01:18;97909.16;;;7.75;91.10
57779;BME280;43608;49.486;9.640;2023-04-02T02:02:17;97903.06;;;7.68;91.07
57779;BME280;43608;49.486;9.640;2023-04-02T02:02:51;97907.44;;;7.74;91.16
57779;BME280;43608;49.486;9.640;2023-04-02T02:03:22;97889.91;;;7.65;91.27
57779;BME280;43608;49.486;9.640;2023-04-02T02:03:55;97899.56;;;7.66;91.07
57779;BME280;43608;49.486;9.640;2023-04-02T02:04:26;97910.06;;;7.72;91.03
57779;BME280;43608;49.486;9.640;2023-04-02T02:04:58;97891.69;;;7.60;91.31
57779;BME280;43608;49.486;9.640;2023-04-02T02:05:28;97889.91;;;7.59;91.11
57779;BME280;43608;49.486;9.640;2023-04-02T02:06:00;97900.41;;;7.70;91.07
57779;BME280;43608;49.486;9.640;2023-04-02T02:06:31;97902.19;;;7.68;91.26
57779;BME280;43608;49.486;9.640;2023-04-02T02:07:02;97893.41;;;7.66;91.14
57779;BME280;43608;49.486;9.640;2023-04-02T02:07:34;97908.31;;;7.73;91.24
57779;BME280;43608;49.486;9.640;2023-04-02T02:08:07;97899.56;;;7.68;91.16
57779;BME280;43608;49.486;9.640;2023-04-02T02:09:23;97918.00;;;7.74;90.59
57779;BME280;43608;49.486;9.640;2023-04-02T02:09:55;97912.69;;;7.72;91.35
57779;BME280;43608;49.486;9.640;2023-04-02T02:10:34;97915.34;;;7.72;91.23
57779;BME280;43608;49.486;9.640;2023-04-02T02:11:07;97922.38;;;7.73;91.32
57779;BME280;43608;49.486;9.640;2023-04-02T02:11:41;97877.66;;;7.52;91.29
57779;BME280;43608;49.486;9.640;2023-04-02T02:12:13;97916.22;;;7.73;91.28
57779;BME280;43608;49.486;9.640;2023-04-02T02:12:46;97903.09;;;7.64;91.20
57779;BME280;43608;49.486;9.640;2023-04-02T02:13:17;97899.56;;;7.61;91.29
57779;BME280;43608;49.486;9.640;2023-04-02T02:13:56;97880.28;;;7.50;91.42
57779;BME280;43608;49.486;9.640;2023-04-02T02:14:29;97903.97;;;7.64;91.54
57779;BME280;43608;49.486;9.640;2023-04-02T02:15:00;97903.09;;;7.59;91.50
57779;BME280;43608;49.486;9.640;2023-04-02T02:15:34;97910.09;;;7.68;91.53
57779;BME280;43608;49.486;9.640;2023-04-02T02:16:05;97912.72;;;7.69;91.68
57779;BME280;43608;49.486;9.640;2023-04-02T02:16:37;97911.88;;;7.63;91.54
57779;BME280;43608;49.486;9.640;2023-04-02T02:17:14;97921.50;;;7.70;91.45
57779;BME280;43608;49.486;9.640;2023-04-02T02:17:45;97918.00;;;7.71;91.41
57779;BME280;43608;49.486;9.640;2023-04-02T02:18:20;97922.38;;;7.72;91.51
57779;BME280;43608;49.486;9.640;2023-04-02T02:18:59;97926.78;;;7.70;91.32
57779;BME280;43608;49.486;9.640;2023-04-02T02:19:35;97919.75;;;7.67;91.36
57779;BME280;43608;49.486;9.640;2023-04-02T02:20:07;97921.50;;;7.70;91.39
57779;BME280;43608;49.486;9.640;2023-04-02T02:20:41;97914.53;;;7.61;91.31
57779;BME280;43608;49.486;9.640;2023-04-02T02:21:37;97922.41;;;7.66;91.45
57779;BME280;43608;49.486;9.640;2023-04-02T02:22:34;97928.56;;;7.69;91.58
57779;BME280;43608;49.486;9.640;2023-04-02T02:23:06;97920.66;;;7.65;91.40
57779;BME280;43608;49.486;9.640;2023-04-02T02:23:38;97930.31;;;7.69;91.56
57779;BME280;43608;49.486;9.640;2023-04-02T02:24:22;97931.19;;;7.68;91.71
57779;BME280;43608;49.486;9.640;2023-04-02T02:24:54;97922.44;;;7.63;91.72
57779;BME280;43608;49.486;9.640;2023-04-02T02:25:28;97928.56;;;7.66;91.67
57779;BME280;43608;49.486;9.640;2023-04-02T02:26:00;97921.56;;;7.59;91.63
57779;BME280;43608;49.486;9.640;2023-04-02T02:26:34;97914.53;;;7.61;91.69
57779;BME280;43608;49.486;9.640;2023-04-02T02:28:08;97928.56;;;7.69;91.59
57779;BME280;43608;49.486;9.640;2023-04-02T02:28:41;97935.59;;;7.70;91.60
57779;BME280;43608;49.486;9.640;2023-04-02T02:29:20;97927.69;;;7.66;91.51
57779;BME280;43608;49.486;9.640;2023-04-02T02:30:56;97939.09;;;7.69;91.49
57779;BME280;43608;49.486;9.640;2023-04-02T02:31:29;97932.97;;;7.69;91.42
57779;BME280;43608;49.486;9.640;2023-04-02T02:32:03;97926.81;;;7.65;91.74
57779;BME280;43608;49.486;9.640;2023-04-02T02:32:43;97929.47;;;7.65;91.73
57779;BME280;43608;49.486;9.640;2023-04-02T02:33:24;97924.22;;;7.62;91.72
57779;BME280;43608;49.486;9.640;2023-04-02T02:33:59;97932.09;;;7.65;91.80
57779;BME280;43608;49.486;9.640;2023-04-02T02:34:42;97932.09;;;7.64;91.81
57779;BME280;43608;49.486;9.640;2023-04-02T02:35:30;97939.13;;;7.66;91.85
57779;BME280;43608;49.486;9.640;2023-04-02T02:36:46;97923.34;;;7.55;91.73
57779;BME280;43608;49.486;9.640;2023-04-02T02:37:27;97932.13;;;7.62;91.88
57779;BME280;43608;49.486;9.640;2023-04-02T02:38:27;97898.78;;;7.42;92.06
57779;BME280;43608;49.486;9.640;2023-04-02T02:39:10;97933.84;;;7.65;92.03
57779;BME280;43608;49.486;9.640;2023-04-02T02:39:44;97921.59;;;7.56;91.79
57779;BME280;43608;49.486;9.640;2023-04-02T02:40:28;97934.75;;;7.64;91.90
57779;BME280;43608;49.486;9.640;2023-04-02T02:41:23;97940.00;;;7.65;91.71
57779;BME280;43608;49.486;9.640;2023-04-02T02:42:03;97936.47;;;7.65;91.88
57779;BME280;43608;49.486;9.640;2023-04-02T02:42:38;97938.25;;;7.64;91.87
57779;BME280;43608;49.486;9.640;2023-04-02T02:43:12;97949.66;;;7.65;91.85
57779;BME280;43608;49.486;9.640;2023-04-02T02:44:15;97940.88;;;7.64;91.82
57779;BME280;43608;49.486;9.640;2023-04-02T02:44:50;97942.66;;;7.62;91.73
57779;BME280;43608;49.486;9.640;2023-04-02T02:45:26;97942.66;;;7.60;91.79
57779;BME280;43608;49.486;9.640;2023-04-02T02:45:58;97945.28;;;7.64;91.97
57779;BME280;43608;49.486;9.640;2023-04-02T02:46:32;97943.53;;;7.63;91.94
57779;BME280;43608;49.486;9.640;2023-04-02T02:47:10;97930.41;;;7.52;91.86
57779;BME280;43608;49.486;9.640;2023-04-02T02:47:44;97935.63;;;7.61;92.18
57779;BME280;43608;49.486;9.640;2023-04-02T02:48:17;97923.34;;;7.52;92.07
57779;BME280;43608;49.486;9.640;2023-04-02T02:48:51;97939.16;;;7.58;92.03
57779;BME280;43608;49.486;9.640;2023-04-02T02:49:34;97944.41;;;7.63;92.15
57779;BME280;43608;49.486;9.640;2023-04-02T02:50:11;97925.13;;;7.50;91.98
57779;BME280;43608;49.486;9.640;2023-04-02T02:50:44;97942.66;;;7.62;92.08
57779;BME280;43608;49.486;9.640;2023-04-02T02:51:23;97908.47;;;7.40;91.99
57779;BME280;43608;49.486;9.640;2023-04-02T02:52:00;97946.16;;;7.64;92.07
57779;BME280;43608;49.486;9.640;2023-04-02T02:52:37;97934.78;;;7.56;91.95
57779;BME280;43608;49.486;9.640;2023-04-02T02:53:28;97950.59;;;7.62;91.98
57779;BME280;43608;49.486;9.640;2023-04-02T02:54:01;97953.19;;;7.64;92.06
57779;BME280;43608;49.486;9.640;2023-04-02T02:54:36;97934.78;;;7.53;91.91
57779;BME280;43608;49.486;9.640;2023-04-02T02:55:18;97917.22;;;7.49;91.87
57779;BME280;43608;49.486;9.640;2023-04-02T02:55:50;97949.66;;;7.63;92.02
57779;BME280;43608;49.486;9.640;2023-04-02T02:56:22;97956.72;;;7.63;92.04
57779;BME280;43608;49.486;9.640;2023-04-02T02:56:57;97955.84;;;7.64;91.98
57779;BME280;43608;49.486;9.640;2023-04-02T02:57:39;97921.63;;;7.42;92.10
57779;BME280;43608;49.486;9.640;2023-04-02T02:58:18;97954.94;;;7.63;91.88
57779;BME280;43608;49.486;9.640;2023-04-02T02:58:52;97954.97;;;7.61;91.97
57779;BME280;43608;49.486;9.640;2023-04-02T02:59:23;97960.22;;;7.61;91.93
57779;BME280;43608;49.486;9.640;2023-04-02T02:59:57;97954.97;;;7.61;91.92
57779;BME280;43608;49.486;9.640;2023-04-02T03:00:30;97951.47;;;7.59;91.87
57779;BME280;43608;49.486;9.640;2023-04-02T03:01:02;97932.16;;;7.48;91.90
57779;BME280;43608;49.486;9.640;2023-04-02T03:01:33;97954.97;;;7.58;91.91
57779;BME280;43608;49.486;9.640;2023-04-02T03:02:04;97932.19;;;7.47;92.01
57779;BME280;43608;49.486;9.640;2023-04-02T03:02:37;97957.59;;;7.61;92.01
57779;BME280;43608;49.486;9.640;2023-04-02T03:03:16;97947.97;;;7.56;91.96
57779;BME280;43608;49.486;9.640;2023-04-02T03:03:51;97955.84;;;7.57;91.97
57779;BME280;43608;49.486;9.640;2023-04-02T03:04:23;97962.84;;;7.63;92.06
57779;BME280;43608;49.486;9.640;2023-04-02T03:04:55;97954.09;;;7.56;92.09
57779;BME280;43608;49.486;9.640;2023-04-02T03:05:26;97963.75;;;7.62;91.96
57779;BME280;43608;49.486;9.640;2023-04-02T03:06:04;97967.28;;;7.63;91.98
57779;BME280;43608;49.486;9.640;2023-04-02T03:06:35;97971.69;;;7.62;91.99
57779;BME280;43608;49.486;9.640;2023-04-02T03:07:06;97966.38;;;7.60;92.22
57779;BME280;43608;49.486;9.640;2023-04-02T03:07:38;97958.50;;;7.57;92.19
57779;BME280;43608;49.486;9.640;2023-04-02T03:08:15;97953.25;;;7.50;92.13
57779;BME280;43608;49.486;9.640;2023-04-02T03:09:18;97964.66;;;7.61;92.46
57779;BME280;43608;49.486;9.640;2023-04-02T03:11:27;97967.28;;;7.58;92.62
57779;BME280;43608;49.486;9.640;2023-04-02T03:13:48;97976.06;;;7.60;92.42
57779;BME280;43608;49.486;9.640;2023-04-02T03:14:35;97970.78;;;7.60;92.33
57779;BME280;43608;49.486;9.640;2023-04-02T03:16:44;97989.25;;;7.61;92.56
57779;BME280;43608;49.486;9.640;2023-04-02T03:17:20;97959.41;;;7.47;92.17
57779;BME280;43608;49.486;9.640;2023-04-02T03:18:09;97973.44;;;7.54;92.44
57779;BME280;43608;49.486;9.640;2023-04-02T03:19:00;97983.09;;;7.61;92.44
57779;BME280;43608;49.486;9.640;2023-04-02T03:19:51;97955.91;;;7.43;92.19
57779;BME280;43608;49.486;9.640;2023-04-02T03:20:48;97983.97;;;7.55;92.32
57779;BME280;43608;49.486;9.640;2023-04-02T03:21:30;97973.47;;;7.52;92.34
57779;BME280;43608;49.486;9.640;2023-04-02T03:22:21;97989.25;;;7.60;92.50
57779;BME280;43608;49.486;9.640;2023-04-02T03:22:59;97981.34;;;7.55;92.06
57779;BME280;43608;49.486;9.640;2023-04-02T03:23:36;97992.75;;;7.60;92.58
57779;BME280;43608;49.486;9.640;2023-04-02T03:24:56;97989.25;;;7.58;92.52
57779;BME280;43608;49.486;9.640;2023-04-02T03:25:40;97996.31;;;7.59;92.50
57779;BME280;43608;49.486;9.640;2023-04-02T03:26:40;97992.75;;;7.59;92.37
57779;BME280;43608;49.486;9.640;2023-04-02T03:27:19;97973.47;;;7.44;92.44
57779;BME280;43608;49.486;9.640;2023-04-02T03:27:57;97991.91;;;7.58;92.57
57779;BME280;43608;49.486;9.640;2023-04-02T03:28:31;97995.41;;;7.59;92.41
57779;BME280;43608;49.486;9.640;2023-04-02T03:30:20;97993.66;;;7.58;92.41
57779;BME280;43608;49.486;9.640;2023-04-02T03:31:00;97984.88;;;7.45;92.65
57779;BME280;43608;49.486;9.640;2023-04-02T03:31:37;97975.22;;;7.42;92.53
57779;BME280;43608;49.486;9.640;2023-04-02T03:32:22;98004.19;;;7.58;92.69
57779;BME280;43608;49.486;9.640;2023-04-02T03:33:03;97991.06;;;7.52;92.60
57779;BME280;43608;49.486;9.640;2023-04-02T03:33:40;97999.81;;;7.57;92.84
57779;BME280;43608;49.486;9.640;2023-04-02T03:34:13;98002.47;;;7.57;92.78
57779;BME280;43608;49.486;9.640;2023-04-02T03:34:48;97992.78;;;7.57;92.85
57779;BME280;43608;49.486;9.640;2023-04-02T03:35:29;97969.13;;;7.39;92.91
57779;BME280;43608;49.486;9.640;2023-04-02T03:36:37;97999.81;;;7.55;92.80
57779;BME280;43608;49.486;9.640;2023-04-02T03:37:26;97948.94;;;7.25;92.86
57779;BME280;43608;49.486;9.640;2023-04-02T03:38:22;97990.19;;;7.48;92.71
57779;BME280;43608;49.486;9.640;2023-04-02T03:39:35;98002.44;;;7.58;92.82
57779;BME280;43608;49.486;9.640;2023-04-02T03:40:14;98003.31;;;7.57;92.91
57779;BME280;43608;49.486;9.640;2023-04-02T03:41:55;97990.16;;;7.53;92.96
57779;BME280;43608;49.486;9.640;2023-04-02T03:42:37;97986.66;;;7.49;92.64
57779;BME280;43608;49.486;9.640;2023-04-02T03:43:38;97941.03;;;7.21;92.53
57779;BME280;43608;49.486;9.640;2023-04-02T03:44:22;97995.44;;;7.56;92.64
57779;BME280;43608;49.486;9.640;2023-04-02T03:44:59;98007.72;;;7.58;92.52
57779;BME280;43608;49.486;9.640;2023-04-02T03:45:36;98004.22;;;7.59;92.60
57779;BME280;43608;49.486;9.640;2023-04-02T03:46:36;98005.94;;;7.59;92.56
57779;BME280;43608;49.486;9.640;2023-04-02T03:47:15;98009.50;;;7.59;92.77
57779;BME280;43608;49.486;9.640;2023-04-02T03:48:06;98006.84;;;7.59;92.58
57779;BME280;43608;49.486;9.640;2023-04-02T03:48:45;98009.47;;;7.61;92.61
57779;BME280;43608;49.486;9.640;2023-04-02T03:49:25;97998.06;;;7.54;92.53
57779;BME280;43608;49.486;9.640;2023-04-02T03:50:00;98008.59;;;7.62;92.49
57779;BME280;43608;49.486;9.640;2023-04-02T03:50:54;98007.72;;;7.60;92.48
57779;BME280;43608;49.486;9.640;2023-04-02T03:51:33;98005.94;;;7.60;92.57
57779;BME280;43608;49.486;9.640;2023-04-02T03:52:09;98008.56;;;7.60;92.37
57779;BME280;43608;49.486;9.640;2023-04-02T03:52:41;97997.19;;;7.52;92.35
57779;BME280;43608;49.486;9.640;2023-04-02T03:53:11;97995.41;;;7.53;92.43
57779;BME280;43608;49.486;9.640;2023-04-02T03:53:42;98000.69;;;7.51;92.45
57779;BME280;43608;49.486;9.640;2023-04-02T03:54:15;98006.81;;;7.58;92.48
57779;BME280;43608;49.486;9.640;2023-04-02T03:54:46;98010.34;;;7.60;92.42
57779;BME280;43608;49.486;9.640;2023-04-02T03:55:20;98005.97;;;7.56;92.23
57779;BME280;43608;49.486;9.640;2023-04-02T03:55:52;98005.09;;;7.58;92.22
57779;BME280;43608;49.486;9.640;2023-04-02T03:56:32;98011.25;;;7.57;92.26
57779;BME280;43608;49.486;9.640;2023-04-02T03:57:29;97983.16;;;7.46;92.22
57779;BME280;43608;49.486;9.640;2023-04-02T03:58:45;98010.34;;;7.55;92.06
57779;BME280;43608;49.486;9.640;2023-04-02T03:59:27;98013.00;;;7.57;92.11
57779;BME280;43608;49.486;9.640;2023-04-02T04:00:14;98002.47;;;7.52;92.42
57779;BME280;43608;49.486;9.640;2023-04-02T04:01:28;98020.91;;;7.55;92.20
57779;BME280;43608;49.486;9.640;2023-04-02T04:02:32;98013.00;;;7.55;92.14